Αρχική σελίδα
METAR-TAF:

METAR-TAF

Αεροδρόμια :

Ραμπάτ, Μαρόκο

γεωγραφικό πλάτος: 34-03N, γεωγραφικό μήκος: 006-46W, υψόμετρο: 84 μ

Παρών καιρός

Η αναφορά έγινε 10 λεπτά πριν, στις 18:30 UTC
Ήπιος άνεμος
Θερμοκρασία 14°C
Υγρασία 82%
Πίεση 1017 hPa
Ορατότητα: 5000 μ

METAR: GMME 151830Z 00000KT 5000 NSC 14/11 Q1017 TEMPO 4000 BR

Χρόνος: 18:40 (18:40 UTC)

Πρόγνωση Καιρού

Η αναφορά έγινε 1 ώρα και 40 λεπτά πριν, στις 17:00 UTC
Η πρόγνωση ισχύει από τις 15 στις 18 UTC έως τις 16 στις 24 UTC
Άνεμος 6 kt από ΝΔ
Ορατότητα: 3500 μ
Αχλής
Προσωρινά
από 15 στις 00 UTC έως τις 16 στις 08 UTC
Ορατότητα: 0600 μ
Αρκετά νέφη σε ύψος 400 πόδια
ομίχλη
Καθιστάμενος
από 16 στις 09 UTC έως τις 16 στις 12 UTC
Άνεμος 4 kt από
Ορατότητα: 5000 μ

TAF: GMME 151700Z 1518/1624 22006KT 3500 BR NSC TEMPO 1500/1608 VRB 0600 FG BKN004 BECMG 1609/1612 32004KT 5000 NSW NSC

Μετεωρολογικές αναφορές και προγνώσεις για περισσότερα από 4000 αεροδρόμια (δελτία METAR και TAF).

Οι διαθέσιμοι σταθμοί απεικονίζονται στο χάρτη με κίτρινες και κόκκινες κουκκίδες.

Μετακινήστε το ποντίκι πάνω από τις κουκκίδες για να δείτε το όνομα του σταθμού.

Στη συνέχεια, κάντε κλικ για να δείτε τις μετεωρολογικές αναφορές και τις προγνώσεις καιρού.

Για να αλλάξετε το χάρτη: κάντε κλικ στα πράσινα κουμπιά με τον μαύρο σταυρό για να ζουμάρετε, στο πράσινο κουμπί με την παύλα για να αφαιρέσετε το ζουμ ή στα πράσινα βέλη για να αντιπαραβάλλετε χάρτες.


METAR-TAF: